Time;durP1;ratioP1;P1;durP2;ratioP2;P2;SDS_P1;SDS_P2;PMS_P1;PMS_P2;Temp;Humidity;BMP_temperature;BMP_pressure;BME280_temperature;BME280_humidity;BME280_pressure;Samples;Min_cycle;Max_cycle;Signal;HPM_P1;HPM_P2
2021/06/20 00:01:13;;;;;;;11.40;9.52;;;23.30;97.20;;;;;;4991769;28;20022;-75
2021/06/20 00:03:38;;;;;;;11.05;9.82;;;23.20;97.10;;;;;;4990511;28;20038;-75
2021/06/20 00:06:29;;;;;;;12.95;10.25;;;23.20;97.10;;;;;;4991631;28;20030;-75
2021/06/20 00:08:56;;;;;;;10.55;9.05;;;23.20;97.00;;;;;;4991855;28;20041;-76
2021/06/20 00:11:22;;;;;;;11.30;9.57;;;23.20;97.00;;;;;;4991737;28;20038;-76
2021/06/20 00:13:48;;;;;;;10.57;9.40;;;23.20;97.00;;;;;;4991469;28;20030;-74
2021/06/20 00:16:13;;;;;;;11.23;9.13;;;23.20;97.00;;;;;;4991603;28;20034;-74
2021/06/20 00:18:39;;;;;;;11.23;9.38;;;23.20;97.00;;;;;;4991035;28;20046;-74
2021/06/20 00:21:05;;;;;;;10.25;9.25;;;23.20;97.00;;;;;;4991011;28;20097;-74
2021/06/20 00:23:30;;;;;;;9.82;8.75;;;23.20;97.00;;;;;;5006528;28;20064;-74
2021/06/20 00:25:56;;;;;;;12.15;9.80;;;23.20;97.00;;;;;;4991842;28;20030;-74
2021/06/20 00:28:22;;;;;;;12.27;10.10;;;23.10;96.90;;;;;;4991909;28;20022;-74
2021/06/20 00:30:50;;;;;;;10.05;9.05;;;23.10;96.90;;;;;;4991461;28;20384;-75
2021/06/20 00:33:16;;;;;;;9.98;8.98;;;23.10;96.90;;;;;;4991338;28;20029;-74
2021/06/20 00:35:42;;;;;;;10.70;8.88;;;23.10;96.90;;;;;;4990909;28;20475;-74
2021/06/20 00:38:08;;;;;;;12.65;8.80;;;23.10;96.90;;;;;;4990980;28;20022;-74
2021/06/20 00:40:34;;;;;;;10.32;8.68;;;23.10;96.90;;;;;;4991237;28;20042;-74
2021/06/20 00:42:59;;;;;;;12.98;9.30;;;23.10;96.90;;;;;;4991454;28;20027;-74
2021/06/20 00:45:25;;;;;;;10.13;8.80;;;23.10;96.90;;;;;;4991128;28;20034;-73
2021/06/20 00:47:55;;;;;;;10.43;8.82;;;23.00;96.90;;;;;;4991536;28;20117;-75
2021/06/20 00:50:21;;;;;;;10.10;9.00;;;23.00;96.90;;;;;;4991521;28;20026;-74
2021/06/20 00:52:46;;;;;;;12.20;9.23;;;23.00;97.00;;;;;;4991362;28;20113;-74
2021/06/20 00:55:13;;;;;;;9.50;8.52;;;23.00;97.00;;;;;;4990252;28;20549;-74
2021/06/20 00:57:39;;;;;;;13.20;9.90;;;23.00;97.00;;;;;;4990563;28;20486;-73
2021/06/20 01:00:08;;;;;;;13.45;10.25;;;23.00;97.00;;;;;;4991393;28;20049;-74
2021/06/20 01:02:34;;;;;;;10.73;9.52;;;23.00;97.00;;;;;;4990381;28;20026;-74
2021/06/20 01:05:01;;;;;;;12.20;10.30;;;23.00;97.10;;;;;;4990638;28;20081;-74
2021/06/20 01:07:27;;;;;;;12.27;9.82;;;23.00;97.10;;;;;;4990342;28;20031;-74
2021/06/20 01:09:53;;;;;;;14.02;10.57;;;22.90;97.10;;;;;;4991250;28;20023;-75
2021/06/20 01:12:21;;;;;;;11.98;10.73;;;22.90;97.10;;;;;;4991456;28;20397;-75
2021/06/20 01:14:47;;;;;;;12.25;10.35;;;22.90;97.10;;;;;;4993017;28;20386;-73
2021/06/20 01:17:15;;;;;;;13.55;10.93;;;22.90;97.50;;;;;;5009097;28;20872;-73
2021/06/20 01:19:41;;;;;;;13.02;10.40;;;22.90;97.30;;;;;;4991645;28;20461;-73
2021/06/20 01:22:18;;;;;;;12.82;11.02;;;22.80;97.30;;;;;;4994353;28;20054;-72
2021/06/20 01:24:47;;;;;;;12.55;11.25;;;22.80;97.40;;;;;;4994412;28;20390;-73
2021/06/20 01:27:13;;;;;;;15.88;12.60;;;22.80;97.40;;;;;;4994240;28;20106;-73
2021/06/20 01:29:46;;;;;;;17.48;13.43;;;22.80;97.50;;;;;;4994165;28;20113;-73
2021/06/20 01:32:12;;;;;;;14.52;12.75;;;22.80;97.50;;;;;;5009946;28;20050;-73
2021/06/20 01:34:38;;;;;;;14.00;12.52;;;22.80;97.60;;;;;;4994042;28;20022;-74
2021/06/20 01:37:08;;;;;;;15.63;13.23;;;22.80;97.70;;;;;;4994238;28;20077;-74
2021/06/20 01:39:36;;;;;;;16.50;13.93;;;22.80;97.70;;;;;;4994222;28;20034;-74
2021/06/20 01:42:02;;;;;;;17.60;13.18;;;22.80;97.70;;;;;;4994455;28;20113;-74
2021/06/20 01:44:27;;;;;;;15.95;13.52;;;22.70;98.00;;;;;;4994686;28;20075;-74
2021/06/20 01:46:53;;;;;;;16.50;13.27;;;22.70;97.70;;;;;;5009761;28;20030;-74
2021/06/20 01:49:18;;;;;;;18.40;13.93;;;22.70;97.80;;;;;;4994221;28;20044;-74
2021/06/20 01:51:45;;;;;;;15.80;13.55;;;22.70;97.80;;;;;;4994029;28;20034;-74
2021/06/20 01:54:11;;;;;;;20.77;14.48;;;22.70;97.80;;;;;;4994304;28;20053;-76
2021/06/20 01:56:37;;;;;;;18.50;14.88;;;22.70;97.90;;;;;;4993676;28;20077;-74
2021/06/20 01:59:02;;;;;;;20.00;14.65;;;22.70;97.90;;;;;;4994053;28;20046;-74
2021/06/20 02:01:30;;;;;;;15.20;13.50;;;22.70;97.90;;;;;;4993028;28;20034;-74
2021/06/20 02:03:56;;;;;;;21.20;14.50;;;22.70;97.90;;;;;;4993731;28;20077;-74
2021/06/20 02:06:22;;;;;;;18.75;15.18;;;22.70;98.00;;;;;;4993801;28;20387;-74
2021/06/20 02:08:47;;;;;;;19.33;14.63;;;22.70;98.00;;;;;;4993380;28;20034;-75
2021/06/20 02:11:13;;;;;;;19.55;14.20;;;22.70;98.00;;;;;;4993262;28;20030;-74
2021/06/20 02:13:39;;;;;;;16.45;13.82;;;22.70;98.00;;;;;;4993644;28;20041;-74
2021/06/20 02:16:05;;;;;;;22.88;15.05;;;22.70;98.10;;;;;;4994175;28;20398;-75
2021/06/20 02:18:31;;;;;;;21.95;15.57;;;22.70;98.10;;;;;;4993226;28;20030;-73
2021/06/20 02:20:57;;;;;;;19.77;13.60;;;22.70;98.30;;;;;;4998497;28;20032;-74
2021/06/20 02:23:23;;;;;;;19.15;14.05;;;22.70;98.50;;;;;;5009150;28;20030;-75
2021/06/20 02:25:49;;;;;;;21.70;15.25;;;22.70;98.70;;;;;;4993163;28;20033;-74
2021/06/20 02:28:15;;;;;;;19.77;15.07;;;22.70;99.00;;;;;;4993635;28;20140;-74
2021/06/20 02:30:40;;;;;;;20.58;15.85;;;22.70;98.70;;;;;;4993442;28;20049;-73
2021/06/20 02:33:06;;;;;;;19.20;15.35;;;22.70;98.80;;;;;;4993491;28;20145;-73
2021/06/20 02:35:32;;;;;;;18.45;14.52;;;22.70;98.90;;;;;;4993522;28;20026;-73
2021/06/20 02:37:57;;;;;;;21.42;15.65;;;22.70;98.90;;;;;;4993516;28;20398;-73
2021/06/20 02:40:23;;;;;;;21.60;14.85;;;22.70;99.00;;;;;;4993243;28;20109;-73
2021/06/20 02:42:49;;;;;;;22.63;15.82;;;22.70;99.10;;;;;;4993796;28;20037;-73
2021/06/20 02:45:18;;;;;;;23.70;15.95;;;22.70;99.20;;;;;;4993707;28;20022;-73
2021/06/20 02:47:44;;;;;;;21.73;16.30;;;22.70;99.10;;;;;;4992892;28;20037;-73
2021/06/20 02:50:11;;;;;;;20.60;15.32;;;22.70;99.20;;;;;;4993019;28;20382;-73
2021/06/20 02:52:37;;;;;;;19.63;14.57;;;22.70;99.30;;;;;;4992924;28;20185;-73
2021/06/20 02:55:03;;;;;;;21.35;15.43;;;22.70;99.30;;;;;;4993493;28;20507;-74
2021/06/20 02:57:31;;;;;;;21.17;15.95;;;22.70;99.30;;;;;;4992372;28;20026;-73
2021/06/20 02:59:58;;;;;;;19.98;16.20;;;22.70;99.70;;;;;;4992516;28;20034;-73
2021/06/20 03:02:24;;;;;;;21.38;16.90;;;22.70;99.40;;;;;;4991255;28;20123;-73
2021/06/20 03:04:51;;;;;;;23.25;16.98;;;22.70;99.40;;;;;;4992946;28;20061;-72
2021/06/20 03:07:17;;;;;;;19.00;14.73;;;22.70;99.40;;;;;;4992493;28;20038;-73
2021/06/20 03:09:43;;;;;;;22.48;16.95;;;22.70;99.50;;;;;;4992171;28;20018;-72
2021/06/20 03:12:10;;;;;;;26.15;18.55;;;22.70;99.50;;;;;;4992810;28;20501;-72
2021/06/20 03:14:36;;;;;;;25.45;17.40;;;22.70;99.60;;;;;;4991824;28;20375;-73
2021/06/20 03:17:04;;;;;;;28.40;17.73;;;22.70;99.60;;;;;;4992631;28;20030;-73
2021/06/20 03:19:32;;;;;;;23.30;17.85;;;22.70;99.60;;;;;;4992116;28;20045;-73
2021/06/20 03:22:00;;;;;;;25.40;16.90;;;22.60;99.60;;;;;;4992523;28;20561;-75
2021/06/20 03:24:34;;;;;;;22.60;17.15;;;22.60;99.70;;;;;;4992651;28;20034;-73
2021/06/20 03:27:00;;;;;;;28.70;19.33;;;22.60;99.70;;;;;;4992599;28;20026;-73
2021/06/20 03:29:26;;;;;;;24.80;18.10;;;22.60;99.70;;;;;;4992088;28;20101;-73
2021/06/20 03:31:53;;;;;;;23.80;18.17;;;22.60;99.70;;;;;;4992136;28;20018;-73
2021/06/20 03:34:19;;;;;;;22.45;18.35;;;22.60;99.70;;;;;;4991582;28;20030;-73
2021/06/20 03:36:45;;;;;;;26.40;19.55;;;22.60;99.70;;;;;;4991736;28;20052;-73
2021/06/20 03:39:11;;;;;;;25.40;19.00;;;22.60;99.70;;;;;;4992327;28;20121;-73
2021/06/20 03:41:38;;;;;;;27.55;18.25;;;22.60;99.70;;;;;;4990262;28;20029;-73
2021/06/20 03:44:06;;;;;;;24.20;19.45;;;22.60;99.70;;;;;;4992293;28;20029;-72
2021/06/20 03:46:32;;;;;;;27.08;19.10;;;22.60;99.70;;;;;;4991982;28;20025;-73
2021/06/20 03:48:58;;;;;;;29.80;20.52;;;22.60;99.90;;;;;;4991589;28;20031;-75
2021/06/20 03:51:24;;;;;;;25.27;18.88;;;22.60;99.90;;;;;;4991657;28;20192;-75
2021/06/20 03:53:49;;;;;;;25.58;19.27;;;22.60;99.80;;;;;;4992694;28;20149;-75
2021/06/20 03:56:15;;;;;;;30.00;19.52;;;22.60;99.80;;;;;;4991999;28;20033;-75
2021/06/20 03:58:40;;;;;;;22.73;18.52;;;22.60;99.80;;;;;;4991273;28;20046;-76
2021/06/20 04:01:06;;;;;;;26.23;19.40;;;22.60;99.90;;;;;;4991792;28;20037;-75
2021/06/20 04:03:32;;;;;;;28.42;19.20;;;22.60;99.90;;;;;;4991857;28;20402;-75
2021/06/20 04:05:57;;;;;;;24.70;18.88;;;22.60;99.80;;;;;;4990654;28;20054;-75
2021/06/20 04:08:23;;;;;;;32.60;21.90;;;22.60;99.90;;;;;;4991850;28;20026;-75
2021/06/20 04:10:49;;;;;;;25.35;19.38;;;22.60;99.90;;;;;;4991514;28;20129;-74
2021/06/20 04:13:14;;;;;;;29.25;20.02;;;22.60;99.90;;;;;;4992200;28;20034;-75
2021/06/20 04:15:40;;;;;;;32.25;20.88;;;22.60;99.90;;;;;;4990462;28;20626;-75
2021/06/20 04:18:09;;;;;;;32.17;20.45;;;22.60;99.90;;;;;;4991430;28;20053;-76
2021/06/20 04:20:35;;;;;;;29.33;19.92;;;22.60;99.90;;;;;;5006272;28;20039;-75
2021/06/20 04:23:01;;;;;;;28.92;19.73;;;22.60;99.90;;;;;;4987212;28;20023;-75
2021/06/20 04:25:27;;;;;;;26.58;19.60;;;22.60;99.90;;;;;;4972129;28;20386;-75
2021/06/20 04:27:52;;;;;;;28.45;21.27;;;22.50;99.90;;;;;;4986753;28;20030;-75
2021/06/20 04:30:21;;;;;;;28.25;20.52;;;22.60;99.90;;;;;;4990880;28;20034;-75
2021/06/20 04:32:47;;;;;;;27.52;20.73;;;22.50;99.90;;;;;;4991209;28;20461;-75
2021/06/20 04:35:14;;;;;;;26.60;20.00;;;22.50;99.90;;;;;;4991434;28;20109;-75
2021/06/20 04:37:41;;;;;;;26.63;19.15;;;22.50;99.90;;;;;;4990896;28;20485;-75
2021/06/20 04:40:11;;;;;;;27.80;19.80;;;22.50;99.90;;;;;;4990989;28;20030;-75
2021/06/20 04:42:38;;;;;;;27.85;19.23;;;22.50;99.90;;;;;;4991552;28;20049;-75
2021/06/20 04:45:06;;;;;;;32.53;19.95;;;22.50;99.90;;;;;;4991776;28;20031;-75
2021/06/20 04:47:32;;;;;;;31.13;20.85;;;22.50;99.90;;;;;;4990144;28;20022;-75
2021/06/20 04:49:58;;;;;;;29.25;20.45;;;22.50;99.90;;;;;;4993647;28;20026;-75
2021/06/20 04:52:24;;;;;;;28.50;19.92;;;22.50;99.90;;;;;;4994857;28;20026;-75
2021/06/20 04:54:50;;;;;;;28.70;20.13;;;22.50;99.90;;;;;;4995998;28;20034;-75
2021/06/20 04:57:27;;;;;;;29.05;20.30;;;22.50;99.90;;;;;;4994376;28;20095;-74
2021/06/20 04:59:55;;;;;;;28.02;20.80;;;22.50;99.90;;;;;;4995665;28;20042;-75
2021/06/20 05:02:21;;;;;;;30.45;20.92;;;22.50;99.90;;;;;;4996507;28;20442;-74
2021/06/20 05:04:48;;;;;;;27.13;20.90;;;22.50;99.90;;;;;;4993945;28;20496;-75
2021/06/20 05:07:14;;;;;;;34.17;20.33;;;22.50;99.90;;;;;;4994525;28;20034;-75
2021/06/20 05:09:40;;;;;;;24.40;20.08;;;22.50;99.90;;;;;;4994659;28;20031;-75
2021/06/20 05:12:08;;;;;;;31.88;21.27;;;22.50;99.90;;;;;;4995023;28;20034;-75
2021/06/20 05:14:39;;;;;;;32.97;20.48;;;22.50;99.90;;;;;;4994902;28;20038;-74
2021/06/20 05:17:05;;;;;;;28.40;20.75;;;22.50;99.90;;;;;;4994830;28;20486;-75
2021/06/20 05:19:30;;;;;;;25.33;18.83;;;22.50;99.90;;;;;;4994436;28;20046;-75
2021/06/20 05:21:56;;;;;;;21.40;16.77;;;22.50;99.90;;;;;;4994926;28;20478;-75
2021/06/20 05:24:23;;;;;;;27.63;17.25;;;22.50;99.90;;;;;;4995508;28;20478;-74
2021/06/20 05:26:50;;;;;;;24.58;16.10;;;22.50;99.90;;;;;;4994397;28;20494;-75
2021/06/20 05:29:15;;;;;;;21.92;16.38;;;22.50;99.90;;;;;;4994024;28;20038;-74
2021/06/20 05:31:41;;;;;;;22.90;15.65;;;22.40;99.90;;;;;;4994191;28;20102;-74
2021/06/20 05:34:07;;;;;;;18.75;15.43;;;22.40;99.90;;;;;;4994575;28;20030;-75
2021/06/20 05:36:33;;;;;;;20.85;14.45;;;22.40;99.90;;;;;;4994590;28;20071;-75
2021/06/20 05:38:59;;;;;;;20.88;14.52;;;22.40;99.90;;;;;;4994949;28;20042;-75
2021/06/20 05:41:24;;;;;;;17.88;13.57;;;22.40;99.90;;;;;;5009347;28;20402;-75
2021/06/20 05:43:50;;;;;;;16.27;12.55;;;22.40;99.90;;;;;;4993084;28;20057;-75
2021/06/20 05:46:18;;;;;;;18.58;13.43;;;22.40;99.90;;;;;;4994185;28;20022;-75
2021/06/20 05:48:45;;;;;;;19.58;13.75;;;22.40;99.90;;;;;;4994213;28;20026;-75
2021/06/20 05:51:10;;;;;;;15.75;12.40;;;22.40;99.90;;;;;;4994066;28;20023;-74
2021/06/20 05:53:36;;;;;;;18.63;12.68;;;22.40;99.90;;;;;;4994077;28;20037;-75
2021/06/20 05:56:02;;;;;;;15.90;12.15;;;22.40;99.90;;;;;;4994557;28;20026;-75
2021/06/20 05:58:27;;;;;;;18.45;11.65;;;22.40;99.90;;;;;;4993505;28;20490;-74
2021/06/20 06:00:53;;;;;;;16.45;11.50;;;22.50;99.90;;;;;;4992459;28;20034;-74
2021/06/20 06:03:18;;;;;;;17.75;11.48;;;22.50;99.90;;;;;;4994194;28;20394;-75
2021/06/20 06:05:44;;;;;;;15.57;10.60;;;22.50;99.90;;;;;;4993245;28;20121;-76
2021/06/20 06:08:10;;;;;;;12.10;9.68;;;22.40;99.90;;;;;;5008774;28;20038;-75
2021/06/20 06:10:36;;;;;;;12.90;8.90;;;22.40;99.90;;;;;;4993317;28;20029;-74
2021/06/20 06:13:01;;;;;;;8.70;7.40;;;22.40;99.90;;;;;;4993674;28;20035;-76
2021/06/20 06:15:28;;;;;;;12.63;7.45;;;22.40;99.90;;;;;;4994029;28;20026;-79
2021/06/20 06:17:54;;;;;;;10.50;7.22;;;22.40;99.90;;;;;;4990122;28;20065;-74
2021/06/20 06:20:20;;;;;;;7.43;6.00;;;22.40;99.90;;;;;;4991042;28;20034;-74
2021/06/20 06:22:47;;;;;;;8.45;6.25;;;22.40;99.90;;;;;;4993687;28;20031;-74
2021/06/20 06:25:13;;;;;;;6.47;5.57;;;22.30;99.90;;;;;;4990782;28;20034;-74
2021/06/20 06:27:39;;;;;;;9.15;5.47;;;22.40;99.90;;;;;;4989082;28;20035;-75
2021/06/20 06:30:06;;;;;;;7.57;5.15;;;22.30;99.90;;;;;;4987489;28;20493;-77
2021/06/20 06:32:32;;;;;;;7.10;4.15;;;22.30;99.90;;;;;;4990292;28;20397;-76
2021/06/20 06:34:57;;;;;;;5.00;3.67;;;22.30;99.90;;;;;;4998273;28;20032;-76
2021/06/20 06:37:23;;;;;;;8.55;3.63;;;22.30;99.90;;;;;;4994720;28;20031;-75
2021/06/20 06:39:49;;;;;;;5.43;2.97;;;22.30;99.90;;;;;;4997975;28;20033;-75
2021/06/20 06:42:15;;;;;;;6.78;2.75;;;22.20;99.90;;;;;;4996122;28;20042;-75
2021/06/20 06:44:40;;;;;;;6.57;3.05;;;22.20;99.60;;;;;;4999270;28;20477;-75
2021/06/20 06:47:06;;;;;;;5.45;2.50;;;22.20;99.90;;;;;;4995592;28;20088;-74
2021/06/20 06:49:33;;;;;;;6.03;2.20;;;22.20;99.70;;;;;;5000149;28;20057;-75
2021/06/20 06:51:58;;;;;;;5.18;2.10;;;22.20;99.60;;;;;;4995966;28;20284;-78
2021/06/20 06:54:24;;;;;;;5.40;2.40;;;22.20;99.50;;;;;;5013370;28;20576;-77
2021/06/20 06:56:50;;;;;;;3.08;2.08;;;22.10;99.50;;;;;;4998468;28;20054;-82
2021/06/20 06:59:15;;;;;;;5.43;1.75;;;22.10;99.40;;;;;;5011708;28;20034;-74
2021/06/20 07:01:42;;;;;;;3.83;1.55;;;22.10;99.40;;;;;;4998770;28;20035;-75
2021/06/20 07:04:08;;;;;;;8.55;1.95;;;22.10;99.40;;;;;;4994948;28;20034;-74
2021/06/20 07:06:33;;;;;;;6.93;1.52;;;22.00;99.40;;;;;;4997202;28;20097;-74
2021/06/20 07:08:59;;;;;;;3.75;1.38;;;22.00;99.30;;;;;;4994643;28;20037;-75
2021/06/20 07:11:25;;;;;;;2.78;1.45;;;22.00;99.20;;;;;;4996827;28;20030;-75
2021/06/20 07:13:50;;;;;;;4.50;1.45;;;22.00;99.20;;;;;;4998243;28;20117;-76
2021/06/20 07:16:16;;;;;;;9.25;1.42;;;22.00;99.10;;;;;;4994789;28;20056;-75
2021/06/20 07:18:42;;;;;;;4.93;1.20;;;22.00;99.10;;;;;;4997834;28;20066;-74
2021/06/20 07:21:09;;;;;;;3.42;1.20;;;22.00;99.10;;;;;;4993227;28;20386;-74
2021/06/20 07:23:35;;;;;;;18.90;9.18;;;22.10;99.30;;;;;;5010125;28;20030;-74
2021/06/20 07:26:02;;;;;;;8.05;6.03;;;22.10;99.20;;;;;;4991898;28;20068;-75
2021/06/20 07:28:27;;;;;;;6.63;4.53;;;22.10;99.30;;;;;;4986665;28;20121;-74
2021/06/20 07:30:53;;;;;;;7.82;4.18;;;22.10;99.40;;;;;;5001871;28;20117;-75
2021/06/20 07:33:20;;;;;;;9.57;3.78;;;22.20;99.50;;;;;;4987277;28;20136;-75
2021/06/20 07:35:51;;;;;;;6.28;3.95;;;22.30;99.40;;;;;;4985872;28;20077;-76
2021/06/20 07:38:18;;;;;;;6.88;3.38;;;22.40;99.50;;;;;;4986841;28;20058;-76
2021/06/20 07:40:44;;;;;;;7.15;3.25;;;22.50;99.50;;;;;;4986145;28;20561;-76
2021/06/20 07:43:09;;;;;;;7.72;3.30;;;22.50;99.40;;;;;;5019964;28;20125;-78
2021/06/20 07:45:37;;;;;;;4.93;2.88;;;22.60;99.40;;;;;;4985957;28;20041;-75
2021/06/20 07:48:04;;;;;;;4.80;2.53;;;22.60;99.30;;;;;;4987527;28;20042;-78
2021/06/20 07:50:29;;;;;;;6.80;2.35;;;22.60;99.20;;;;;;4985733;28;20049;-76
2021/06/20 07:52:55;;;;;;;5.22;2.40;;;22.60;99.20;;;;;;4986971;28;20026;-76
2021/06/20 07:55:20;;;;;;;5.50;2.53;;;22.70;99.10;;;;;;5018970;28;20454;-76
2021/06/20 07:57:46;;;;;;;4.40;1.77;;;22.70;99.00;;;;;;4986565;28;20441;-76
2021/06/20 08:00:12;;;;;;;5.90;1.98;;;22.70;99.00;;;;;;4985783;28;20053;-76
2021/06/20 08:02:39;;;;;;;8.82;1.98;;;22.70;98.80;;;;;;4985615;28;20030;-75
2021/06/20 08:05:05;;;;;;;5.72;2.08;;;22.80;98.90;;;;;;4990162;28;20070;-76
2021/06/20 08:07:32;;;;;;;6.22;1.88;;;22.70;98.80;;;;;;4987209;28;20026;-75
2021/06/20 08:09:57;;;;;;;4.95;1.63;;;22.80;98.60;;;;;;4991843;28;20037;-74
2021/06/20 08:12:24;;;;;;;7.65;2.08;;;22.80;98.50;;;;;;4987396;28;20486;-75
2021/06/20 08:14:51;;;;;;;2.97;1.40;;;22.90;98.70;;;;;;4985964;28;20077;-76
2021/06/20 08:17:17;;;;;;;5.68;1.80;;;22.90;98.30;;;;;;4986118;28;20042;-76
2021/06/20 08:19:43;;;;;;;4.40;2.20;;;22.90;98.20;;;;;;4986558;28;20125;-75
2021/06/20 08:22:10;;;;;;;3.95;1.42;;;22.90;97.70;;;;;;4985464;28;20172;-79
2021/06/20 08:24:36;;;;;;;7.43;1.95;;;22.90;97.80;;;;;;4985150;28;20019;-76
2021/06/20 08:27:03;;;;;;;4.82;1.92;;;22.90;97.70;;;;;;5005956;28;20023;-78
2021/06/20 08:29:30;;;;;;;5.65;1.85;;;22.80;97.80;;;;;;4988382;28;20486;-80
2021/06/20 08:31:55;;;;;;;10.50;2.30;;;22.90;97.80;;;;;;4989360;28;20824;-81
2021/06/20 08:34:21;;;;;;;7.75;2.28;;;22.90;97.70;;;;;;4987071;28;20042;-79
2021/06/20 08:36:47;;;;;;;15.55;3.50;;;23.00;97.60;;;;;;4987392;28;20037;-80
2021/06/20 08:39:13;;;;;;;16.17;4.05;;;23.00;97.50;;;;;;4985471;28;20030;-79
2021/06/20 08:41:41;;;;;;;16.70;4.13;;;23.00;97.60;;;;;;4985595;28;20130;-86
2021/06/20 08:44:15;;;;;;;17.20;3.58;;;23.10;97.50;;;;;;4988309;28;20023;-90
2021/06/20 08:46:42;;;;;;;25.17;4.55;;;23.10;97.20;;;;;;4986228;28;20035;-78
2021/06/20 08:49:08;;;;;;;20.58;4.47;;;23.10;97.20;;;;;;4990653;28;20027;-84
2021/06/20 08:51:35;;;;;;;23.50;4.10;;;23.10;97.10;;;;;;4991024;28;20121;-81
2021/06/20 08:54:00;;;;;;;27.40;5.13;;;23.10;97.00;;;;;;4991146;28;20034;-77
2021/06/20 08:56:27;;;;;;;28.45;5.10;;;23.10;97.00;;;;;;4990644;28;20147;-75
2021/06/20 08:58:53;;;;;;;23.80;3.88;;;23.10;96.90;;;;;;4990949;28;20018;-79
2021/06/20 09:01:18;;;;;;;16.35;3.88;;;23.10;96.80;;;;;;4990256;28;20034;-74
2021/06/20 09:03:45;;;;;;;19.40;4.25;;;23.10;96.80;;;;;;4990338;28;20030;-75
2021/06/20 09:06:23;;;;;;;15.65;3.25;;;23.10;96.70;;;;;;4990297;28;20027;-80
2021/06/20 09:08:58;;;;;;;5.85;2.65;;;23.00;96.60;;;;;;4990202;28;20033;-76
2021/06/20 09:11:36;;;;;;;6.35;2.70;;;23.00;96.40;;;;;;4989825;28;20045;-73
2021/06/20 09:14:15;;;;;;;5.47;2.53;;;22.90;96.20;;;;;;4990989;28;20085;-73
2021/06/20 09:16:46;;;;;;;6.00;2.28;;;22.80;96.40;;;;;;4971823;28;20078;-77
2021/06/20 09:19:12;;;;;;;9.68;2.63;;;22.70;96.00;;;;;;4972052;28;20030;-80
2021/06/20 09:21:38;;;;;;;9.43;2.70;;;22.70;96.20;;;;;;4989097;28;20027;-73
2021/06/20 09:24:04;;;;;;;5.63;2.35;;;22.70;96.30;;;;;;4989363;28;20061;-72
2021/06/20 09:26:41;;;;;;;9.90;2.67;;;22.70;96.30;;;;;;4989688;28;20456;-73
2021/06/20 09:29:08;;;;;;;6.38;2.53;;;22.70;96.30;;;;;;4988282;28;20026;-72
2021/06/20 09:31:48;;;;;;;3.88;2.45;;;22.80;96.10;;;;;;4990305;28;20477;-75
2021/06/20 09:34:14;;;;;;;6.43;2.10;;;22.80;96.10;;;;;;4990617;28;20402;-74
2021/06/20 09:36:40;;;;;;;3.40;2.03;;;22.90;96.30;;;;;;4993695;28;20446;-75
2021/06/20 09:39:20;;;;;;;8.63;2.17;;;22.90;95.80;;;;;;4994355;28;20062;-76
2021/06/20 09:42:05;;;;;;;6.35;2.40;;;22.90;95.90;;;;;;4994622;28;20037;-77
2021/06/20 09:44:37;;;;;;;8.57;2.08;;;23.10;96.10;;;;;;4994657;28;20026;-74
2021/06/20 09:47:03;;;;;;;3.97;2.47;;;23.10;96.10;;;;;;4994291;28;20110;-75
2021/06/20 09:49:30;;;;;;;7.72;2.47;;;23.20;96.10;;;;;;4993612;28;20109;-73
2021/06/20 09:51:57;;;;;;;7.53;2.45;;;23.20;96.00;;;;;;4994244;28;20030;-73
2021/06/20 09:54:30;;;;;;;6.00;2.28;;;23.20;95.70;;;;;;4994209;28;20022;-74
2021/06/20 09:56:56;;;;;;;4.95;2.00;;;23.30;95.50;;;;;;4994326;28;20084;-73
2021/06/20 10:00:00;;;;;;;5.13;1.90;;;23.30;95.40;;;;;;4994075;28;20398;-73
2021/06/20 10:02:31;;;;;;;4.47;2.08;;;23.30;95.40;;;;;;4972864;28;20038;-72
2021/06/20 10:04:57;;;;;;;6.80;2.22;;;23.30;95.10;;;;;;4993764;28;20028;-73
2021/06/20 10:07:28;;;;;;;7.53;2.03;;;23.30;95.20;;;;;;4984031;28;20015;-75
2021/06/20 10:09:55;;;;;;;5.22;2.45;;;23.30;95.10;;;;;;4992951;28;20077;-72
2021/06/20 10:12:22;;;;;;;4.93;2.20;;;23.30;95.10;;;;;;4994668;28;20010;-77
2021/06/20 10:14:51;;;;;;;5.70;1.90;;;23.40;95.10;;;;;;4994203;28;20031;-74
2021/06/20 10:17:25;;;;;;;4.40;2.10;;;23.40;95.00;;;;;;4993044;28;20028;-74
2021/06/20 10:19:53;;;;;;;4.60;1.80;;;23.40;95.00;;;;;;4993841;28;20470;-71
2021/06/20 10:22:19;;;;;;;9.55;2.22;;;23.40;95.00;;;;;;4993678;28;20034;-73
2021/06/20 10:24:52;;;;;;;7.40;1.88;;;23.50;95.00;;;;;;4993138;28;20121;-73
2021/06/20 10:27:38;;;;;;;9.23;2.22;;;23.40;95.10;;;;;;4993946;28;20022;-71
2021/06/20 10:30:07;;;;;;;5.75;1.85;;;23.50;95.30;;;;;;4993490;28;20030;-72
2021/06/20 10:32:42;;;;;;;3.58;2.10;;;23.50;95.10;;;;;;5008293;28;20076;-72
2021/06/20 10:35:14;;;;;;;6.47;2.03;;;23.50;95.30;;;;;;4992824;28;20113;-75
2021/06/20 10:37:40;;;;;;;7.53;1.90;;;23.50;95.30;;;;;;4993042;28;20808;-71
2021/06/20 10:40:18;;;;;;;3.45;1.65;;;23.50;95.30;;;;;;4991455;28;20026;-72
2021/06/20 10:42:44;;;;;;;2.70;1.88;;;23.60;95.40;;;;;;4991471;28;20435;-74
2021/06/20 10:45:10;;;;;;;3.75;1.80;;;23.60;95.40;;;;;;4992145;28;20041;-70
2021/06/20 10:47:40;;;;;;;6.03;1.83;;;23.60;95.40;;;;;;4991443;28;20014;-72
2021/06/20 10:50:08;;;;;;;4.60;1.80;;;23.60;95.20;;;;;;4992036;28;20030;-72
2021/06/20 10:52:35;;;;;;;5.10;1.95;;;23.60;95.20;;;;;;4990946;28;20026;-73
2021/06/20 10:55:10;;;;;;;3.42;1.95;;;23.70;95.00;;;;;;4993213;28;20030;-72
2021/06/20 10:57:50;;;;;;;6.60;2.03;;;23.70;95.10;;;;;;5007176;28;20084;-72
2021/06/20 11:00:32;;;;;;;4.65;1.70;;;23.70;95.00;;;;;;4989475;28;20049;-73
2021/06/20 11:03:14;;;;;;;5.97;1.60;;;23.80;94.90;;;;;;4989948;28;20027;-71
2021/06/20 11:05:48;;;;;;;6.28;1.83;;;23.80;95.00;;;;;;4992205;28;20031;-73
2021/06/20 11:08:25;;;;;;;5.78;1.52;;;23.80;94.90;;;;;;4992301;28;20055;-71
2021/06/20 11:11:03;;;;;;;6.75;2.00;;;23.80;94.80;;;;;;4992074;28;20022;-72
2021/06/20 11:13:28;;;;;;;5.70;1.48;;;23.80;94.60;;;;;;4991020;28;20036;-76
2021/06/20 11:16:08;;;;;;;5.13;1.65;;;23.80;94.60;;;;;;4991041;28;20213;-70
2021/06/20 11:18:34;;;;;;;9.40;1.42;;;23.80;94.60;;;;;;5007204;28;20034;-72
2021/06/20 11:21:00;;;;;;;6.65;1.70;;;23.90;94.60;;;;;;4987065;28;20034;-75
2021/06/20 11:23:32;;;;;;;1.73;1.10;;;23.90;94.40;;;;;;4989561;28;20096;-74
2021/06/20 11:26:00;;;;;;;6.53;1.50;;;23.90;94.50;;;;;;4989155;28;20102;-74
2021/06/20 11:28:27;;;;;;;5.95;1.67;;;23.90;94.40;;;;;;4991809;28;20113;-73
2021/06/20 11:31:04;;;;;;;5.72;1.40;;;23.90;94.40;;;;;;4992368;28;20033;-72
2021/06/20 11:33:30;;;;;;;4.20;1.35;;;23.90;94.30;;;;;;4990146;28;20453;-72
2021/06/20 11:35:55;;;;;;;7.97;1.50;;;23.90;94.20;;;;;;4991713;28;20027;-72
2021/06/20 11:38:36;;;;;;;3.70;1.40;;;23.90;94.10;;;;;;4991613;28;20030;-71
2021/06/20 11:41:19;;;;;;;3.45;1.10;;;23.90;94.00;;;;;;4996685;28;20392;-73
2021/06/20 11:44:12;;;;;;;3.67;1.52;;;23.90;93.90;;;;;;4993390;28;20457;-73
2021/06/20 11:46:41;;;;;;;3.47;1.52;;;23.90;93.90;;;;;;4989193;28;20049;-71
2021/06/20 11:49:09;;;;;;;4.07;1.40;;;24.00;93.80;;;;;;4991231;28;20026;-75
2021/06/20 11:51:49;;;;;;;4.03;1.25;;;23.90;93.80;;;;;;4991594;28;20089;-74
2021/06/20 11:54:18;;;;;;;5.20;1.40;;;23.90;93.70;;;;;;4991291;28;20116;-73
2021/06/20 11:56:53;;;;;;;9.88;8.88;;;23.90;93.50;;;;;;4985269;28;20569;-71
2021/06/20 11:59:28;;;;;;;6.53;5.10;;;23.90;92.70;;;;;;4990482;28;20092;-72
2021/06/20 12:01:54;;;;;;;8.18;6.75;;;23.80;92.10;;;;;;4985929;28;20358;-72
2021/06/20 12:04:22;;;;;;;7.55;6.85;;;23.80;91.70;;;;;;5007098;28;20117;-73
2021/06/20 12:06:50;;;;;;;7.32;6.63;;;23.80;91.50;;;;;;4988384;28;20033;-72
2021/06/20 12:09:16;;;;;;;11.10;6.15;;;23.80;91.30;;;;;;4991472;28;20045;-74
2021/06/20 12:11:43;;;;;;;10.40;6.47;;;23.80;91.40;;;;;;4990422;28;20371;-72
2021/06/20 12:14:24;;;;;;;6.18;5.50;;;23.90;91.50;;;;;;5006582;28;20026;-72
2021/06/20 12:16:52;;;;;;;7.25;6.00;;;23.90;91.50;;;;;;4991488;28;20023;-72
2021/06/20 12:19:20;;;;;;;6.00;5.40;;;23.90;91.50;;;;;;4991378;28;20030;-74
2021/06/20 12:21:46;;;;;;;7.07;5.78;;;23.90;91.50;;;;;;4990379;28;20022;-73
2021/06/20 12:24:13;;;;;;;6.78;5.72;;;23.90;91.50;;;;;;4990270;28;20501;-76
2021/06/20 12:26:52;;;;;;;9.77;3.92;;;23.90;91.30;;;;;;4991777;28;20014;-73
2021/06/20 12:29:30;;;;;;;4.78;3.20;;;23.90;90.10;;;;;;4990851;28;20061;-74
2021/06/20 12:32:05;;;;;;;4.95;3.67;;;23.90;90.00;;;;;;4992057;28;20504;-71
2021/06/20 12:34:51;;;;;;;6.90;3.80;;;23.90;90.20;;;;;;4991692;28;20026;-73
2021/06/20 12:37:20;;;;;;;5.30;3.65;;;23.90;90.10;;;;;;4991179;28;20026;-74
2021/06/20 12:39:51;;;;;;;5.55;3.65;;;23.90;90.30;;;;;;4991245;28;20042;-73
2021/06/20 12:42:21;;;;;;;6.05;3.35;;;23.90;90.40;;;;;;4991042;28;20022;-73